createdAt,value
2023-09-23T00:00:38.482Z,998.31
2023-09-23T00:01:38.590Z,998.34
2023-09-23T00:02:38.534Z,998.34
2023-09-23T00:03:38.614Z,998.37
2023-09-23T00:04:38.578Z,998.41
2023-09-23T00:05:38.465Z,998.41
2023-09-23T00:06:38.441Z,998.44
2023-09-23T00:07:38.472Z,998.44
2023-09-23T00:08:38.426Z,998.43
2023-09-23T00:09:38.396Z,998.43
2023-09-23T00:10:38.405Z,998.43
2023-09-23T00:11:38.459Z,998.45
2023-09-23T00:12:38.350Z,998.46
2023-09-23T00:13:38.431Z,998.44
2023-09-23T00:14:38.338Z,998.46
2023-09-23T00:15:38.337Z,998.43
2023-09-23T00:16:38.455Z,998.44
2023-09-23T00:17:38.335Z,998.48
2023-09-23T00:18:38.303Z,998.53
2023-09-23T00:19:38.321Z,998.57
2023-09-23T00:20:38.262Z,998.61
2023-09-23T00:21:38.278Z,998.64
2023-09-23T00:22:38.275Z,998.67
2023-09-23T00:23:38.254Z,998.70
2023-09-23T00:24:38.221Z,998.73
2023-09-23T00:25:38.433Z,998.75
2023-09-23T00:26:38.262Z,998.76
2023-09-23T00:27:38.201Z,998.76
2023-09-23T00:28:38.257Z,998.79
2023-09-23T00:29:38.193Z,998.75
2023-09-23T00:30:38.164Z,998.74
2023-09-23T00:31:38.181Z,998.79
2023-09-23T00:32:38.170Z,998.77
2023-09-23T00:33:38.180Z,998.77
2023-09-23T00:34:38.134Z,998.78
2023-09-23T00:35:38.196Z,998.81
2023-09-23T00:36:38.103Z,998.83
2023-09-23T00:37:38.122Z,998.85
2023-09-23T00:38:38.102Z,998.83
2023-09-23T00:39:38.084Z,998.89
2023-09-23T00:40:38.089Z,998.88
2023-09-23T00:41:38.066Z,998.90
2023-09-23T00:42:38.042Z,998.90
2023-09-23T00:43:38.099Z,998.91
2023-09-23T00:44:38.042Z,998.94
2023-09-23T00:45:38.042Z,998.94
2023-09-23T00:46:38.007Z,998.96
2023-09-23T00:47:38.013Z,998.96
2023-09-23T00:48:37.954Z,999.00
2023-09-23T00:49:38.018Z,999.00
2023-09-23T00:50:37.934Z,998.99
2023-09-23T00:51:37.945Z,998.99
2023-09-23T00:52:37.976Z,998.98
2023-09-23T00:53:37.986Z,999.01
2023-09-23T00:54:37.911Z,998.98
2023-09-23T00:55:37.927Z,999.00
2023-09-23T00:56:37.876Z,999.01
2023-09-23T00:57:37.871Z,999.02
2023-09-23T00:58:37.874Z,999.03
2023-09-23T00:59:37.866Z,999.04
2023-09-23T01:00:37.850Z,999.02
2023-09-23T01:01:37.902Z,999.01
2023-09-23T01:02:37.956Z,998.98
2023-09-23T01:03:38.000Z,998.99
2023-09-23T01:04:37.831Z,999.00
2023-09-23T01:05:37.790Z,998.99
2023-09-23T01:06:37.807Z,998.98
2023-09-23T01:07:37.786Z,998.95
2023-09-23T01:08:37.742Z,998.97
2023-09-23T01:09:37.741Z,998.99
2023-09-23T01:10:37.767Z,999.02
2023-09-23T01:11:37.727Z,999.02
2023-09-23T01:12:37.707Z,998.99
2023-09-23T01:13:37.784Z,998.99
2023-09-23T01:14:37.686Z,998.97
2023-09-23T01:15:37.718Z,998.96
2023-09-23T01:16:37.681Z,998.92
2023-09-23T01:17:37.721Z,998.91
2023-09-23T01:18:37.707Z,998.90
2023-09-23T01:19:37.706Z,998.94
2023-09-23T01:20:37.620Z,998.94
2023-09-23T01:21:37.616Z,998.95
2023-09-23T01:22:37.697Z,998.95
2023-09-23T01:23:37.605Z,998.95
2023-09-23T01:24:37.599Z,998.98
2023-09-23T01:25:37.750Z,999.00
2023-09-23T01:26:43.565Z,999.07
2023-09-23T01:27:37.576Z,999.03
2023-09-23T01:28:37.563Z,999.03
2023-09-23T01:29:37.526Z,999.05
2023-09-23T06:45:57.028Z,1002.80
2023-09-23T06:46:59.802Z,1002.83
2023-09-23T06:47:57.999Z,1002.86
2023-09-23T06:48:57.985Z,1002.92
2023-09-23T06:49:58.005Z,1002.92
2023-09-23T06:50:57.991Z,1002.97
2023-09-23T06:51:57.934Z,1003.00
2023-09-23T06:52:57.964Z,1003.02
2023-09-23T06:53:57.923Z,1003.02
2023-09-23T06:54:57.981Z,1003.02
2023-09-23T06:55:57.942Z,1003.03
2023-09-23T06:56:57.919Z,1003.03
2023-09-23T06:57:57.872Z,1003.04
2023-09-23T06:58:57.903Z,1003.05
2023-09-23T06:59:57.851Z,1003.06
2023-09-23T07:01:48.192Z,1003.04
2023-09-23T07:02:49.325Z,1003.06
2023-09-23T07:03:49.312Z,1003.04
2023-09-23T07:04:49.156Z,1003.06
2023-09-23T07:05:49.650Z,1003.06
2023-09-23T07:06:49.138Z,1003.10
2023-09-23T07:07:49.134Z,1003.07
2023-09-23T07:08:49.105Z,1003.10
2023-09-23T07:09:49.065Z,1003.13
2023-09-23T07:10:49.086Z,1003.16
2023-09-23T07:11:49.036Z,1003.14
2023-09-23T07:12:49.079Z,1003.16
2023-09-23T07:13:49.234Z,1003.17
2023-09-23T07:14:49.021Z,1003.18
2023-09-23T07:15:49.002Z,1003.18
2023-09-23T07:16:49.197Z,1003.21
2023-09-23T07:17:49.013Z,1003.22
2023-09-23T07:18:49.030Z,1003.24
2023-09-23T07:19:48.999Z,1003.28
2023-09-23T07:20:48.961Z,1003.27
2023-09-23T07:21:48.940Z,1003.28
2023-09-23T07:22:48.999Z,1003.27
2023-09-23T07:23:48.917Z,1003.26
2023-09-23T07:24:48.952Z,1003.29
2023-09-23T07:25:48.972Z,1003.31
2023-09-23T07:26:48.890Z,1003.27
2023-09-23T07:27:48.884Z,1003.26
2023-09-23T07:28:48.982Z,1003.29
2023-09-23T07:29:48.846Z,1003.27
2023-09-23T07:30:48.962Z,1003.30
2023-09-23T07:31:48.870Z,1003.28
2023-09-23T07:32:48.902Z,1003.29
2023-09-23T07:33:48.996Z,1003.31
2023-09-23T07:34:48.905Z,1003.31
2023-09-23T07:35:48.844Z,1003.30
2023-09-23T07:36:48.852Z,1003.30
2023-09-23T07:37:48.804Z,1003.31
2023-09-23T07:38:48.775Z,1003.36
2023-09-23T07:39:48.753Z,1003.37
2023-09-23T07:40:48.767Z,1003.38
2023-09-23T07:41:48.728Z,1003.42
2023-09-23T07:42:48.731Z,1003.42
2023-09-23T07:43:49.000Z,1003.43
2023-09-23T07:44:48.697Z,1003.44
2023-09-23T07:45:48.742Z,1003.43
2023-09-23T07:46:48.706Z,1003.42
2023-09-23T07:47:48.782Z,1003.44
2023-09-23T07:48:48.685Z,1003.46
2023-09-23T07:49:48.669Z,1003.47
2023-09-23T07:50:48.664Z,1003.47
2023-09-23T07:51:48.623Z,1003.44
2023-09-23T07:52:48.634Z,1003.47
2023-09-23T07:53:48.941Z,1003.44
2023-09-23T07:54:48.588Z,1003.46
2023-09-23T07:55:48.703Z,1003.48
2023-09-23T07:56:48.570Z,1003.48
2023-09-23T07:57:48.555Z,1003.49
2023-09-23T07:58:48.598Z,1003.51
2023-09-23T07:59:48.545Z,1003.54
2023-09-23T08:00:48.567Z,1003.53
2023-09-23T08:01:48.591Z,1003.52
2023-09-23T08:02:48.565Z,1003.52
2023-09-23T08:03:48.902Z,1003.55
2023-09-23T08:04:48.496Z,1003.52
2023-09-23T08:05:48.503Z,1003.55
2023-09-23T08:06:48.476Z,1003.53
2023-09-23T08:07:48.452Z,1003.59
2023-09-23T08:08:48.449Z,1003.58
2023-09-23T08:09:48.429Z,1003.62
2023-09-23T08:10:48.414Z,1003.63
2023-09-23T08:11:48.428Z,1003.66
2023-09-23T08:12:48.417Z,1003.66
2023-09-23T08:13:48.505Z,1003.67
2023-09-23T08:14:48.396Z,1003.72
2023-09-23T08:15:48.361Z,1003.75
2023-09-23T08:16:48.350Z,1003.76
2023-09-23T08:17:48.405Z,1003.78
2023-09-23T08:18:48.335Z,1003.82
2023-09-23T08:19:48.299Z,1003.82
2023-09-23T08:20:48.317Z,1003.85
2023-09-23T08:21:48.291Z,1003.86
2023-09-23T08:22:48.318Z,1003.90
2023-09-23T08:23:48.613Z,1003.99
2023-09-23T08:24:48.270Z,1003.95
2023-09-23T08:25:48.228Z,1003.98
2023-09-23T08:26:48.242Z,1003.99
2023-09-23T08:27:48.240Z,1004.01
2023-09-23T08:28:48.248Z,1004.06
2023-09-23T08:29:48.212Z,1004.05
2023-09-23T08:30:48.189Z,1004.10
2023-09-23T08:31:48.274Z,1004.10
2023-09-23T08:32:48.287Z,1004.05
2023-09-23T08:33:48.413Z,1004.05
2023-09-23T08:34:48.161Z,1004.07
2023-09-23T08:35:48.134Z,1004.05
2023-09-23T08:36:48.137Z,1004.07
2023-09-23T08:37:48.123Z,1004.05
2023-09-23T08:38:48.496Z,1004.05
2023-09-23T08:39:48.122Z,1004.05
2023-09-23T08:40:48.149Z,1004.06
2023-09-23T08:41:49.328Z,1004.13
2023-09-23T08:42:48.080Z,1004.08
2023-09-23T08:43:48.374Z,1004.03
2023-09-23T08:44:48.042Z,1004.12
2023-09-23T08:45:48.122Z,1004.12
2023-09-23T08:46:48.367Z,1004.08
2023-09-23T08:47:48.034Z,1004.06
2023-09-23T08:48:48.203Z,1004.05
2023-09-23T08:49:47.977Z,1004.10
2023-09-23T08:50:48.114Z,1004.06
2023-09-23T08:51:47.969Z,1004.14
2023-09-23T08:52:48.685Z,1004.19
2023-09-23T08:53:47.932Z,1004.21
2023-09-23T08:54:47.969Z,1004.21
2023-09-23T08:55:47.927Z,1004.24
2023-09-23T08:56:47.915Z,1004.31
2023-09-23T08:57:47.978Z,1004.31
2023-09-23T08:58:48.000Z,1004.30
2023-09-23T08:59:47.874Z,1004.33
2023-09-23T09:00:47.895Z,1004.33
2023-09-23T09:01:47.850Z,1004.38
2023-09-23T09:02:47.979Z,1004.29
2023-09-23T09:03:47.828Z,1004.36
2023-09-23T09:04:47.881Z,1004.46
2023-09-23T09:05:47.932Z,1004.35
2023-09-23T09:06:47.798Z,1004.44
2023-09-23T09:07:47.835Z,1004.48
2023-09-23T09:08:47.987Z,1004.43
2023-09-23T09:09:47.779Z,1004.42
2023-09-23T09:10:47.826Z,1004.47
2023-09-23T09:11:47.773Z,1004.45
2023-09-23T09:12:47.778Z,1004.43
2023-09-23T09:13:47.735Z,1004.46
2023-09-23T09:14:47.747Z,1004.48
2023-09-23T09:15:47.732Z,1004.49
2023-09-23T09:16:47.704Z,1004.47
2023-09-23T09:17:47.710Z,1004.48
2023-09-23T09:18:47.890Z,1004.49
2023-09-23T09:19:50.654Z,1004.50
2023-09-23T09:20:47.654Z,1004.47
2023-09-23T09:21:47.693Z,1004.48
2023-09-23T09:22:47.671Z,1004.52
2023-09-23T09:23:47.633Z,1004.53
2023-09-23T09:24:47.611Z,1004.53
2023-09-23T09:25:47.605Z,1004.49
2023-09-23T09:26:47.632Z,1004.48
2023-09-23T09:27:47.626Z,1004.50
2023-09-23T09:28:47.989Z,1004.51
2023-09-23T09:29:52.133Z,1004.52
2023-09-23T09:30:47.543Z,1004.54
2023-09-23T09:31:47.535Z,1004.56
2023-09-23T09:32:47.566Z,1004.58
2023-09-23T09:33:47.548Z,1004.60
2023-09-23T09:34:47.521Z,1004.65
2023-09-23T09:35:47.475Z,1004.66
2023-09-23T09:36:47.484Z,1004.64
2023-09-23T09:37:47.454Z,1004.64
2023-09-23T09:38:47.625Z,1004.68
2023-09-23T09:39:47.455Z,1004.72
2023-09-23T09:40:47.434Z,1004.66
2023-09-23T09:41:47.418Z,1004.68
2023-09-23T09:42:49.292Z,1004.69
2023-09-23T09:43:47.430Z,1004.67
2023-09-23T09:44:47.393Z,1004.69
2023-09-23T09:45:47.365Z,1004.70
2023-09-23T09:46:47.405Z,1004.69
2023-09-23T09:47:47.438Z,1004.67
2023-09-23T09:48:47.617Z,1004.67
2023-09-23T09:49:47.356Z,1004.71
2023-09-23T09:50:47.319Z,1004.69
2023-09-23T09:51:47.300Z,1004.68
2023-09-23T09:52:47.329Z,1004.66
2023-09-23T09:53:47.289Z,1004.66
2023-09-23T09:54:47.282Z,1004.65
2023-09-23T09:55:47.284Z,1004.62
2023-09-23T09:56:47.286Z,1004.62
2023-09-23T09:57:47.240Z,1004.61
2023-09-23T09:58:47.422Z,1004.62
2023-09-23T09:59:47.220Z,1004.59
2023-09-23T10:00:47.245Z,1004.58
2023-09-23T10:01:47.208Z,1004.65
2023-09-23T10:02:47.281Z,1004.66
2023-09-23T10:03:47.496Z,1004.62
2023-09-23T10:04:47.172Z,1004.66
2023-09-23T10:05:47.175Z,1004.61
2023-09-23T10:06:47.149Z,1004.65
2023-09-23T10:07:47.137Z,1004.62
2023-09-23T10:08:47.298Z,1004.66
2023-09-23T10:09:47.118Z,1004.63
2023-09-23T10:10:47.148Z,1004.65
2023-09-23T10:11:47.073Z,1004.62
2023-09-23T10:12:47.107Z,1004.63
2023-09-23T10:13:47.087Z,1004.67
2023-09-23T10:14:47.058Z,1004.64
2023-09-23T10:15:47.082Z,1004.59
2023-09-23T10:16:47.139Z,1004.61
2023-09-23T10:17:47.115Z,1004.60
2023-09-23T10:18:47.297Z,1004.57
2023-09-23T10:19:47.006Z,1004.54
2023-09-23T10:20:46.998Z,1004.55
2023-09-23T10:21:47.027Z,1004.59
2023-09-23T10:22:46.983Z,1004.54
2023-09-23T10:23:46.971Z,1004.58
2023-09-23T10:24:46.962Z,1004.60
2023-09-23T10:25:46.929Z,1004.59
2023-09-23T10:26:46.928Z,1004.64
2023-09-23T10:27:46.920Z,1004.65
2023-09-23T10:28:47.084Z,1004.61
2023-09-23T10:29:47.134Z,1004.68
2023-09-23T10:30:46.976Z,1004.68
2023-09-23T10:31:46.872Z,1004.71
2023-09-23T10:32:46.974Z,1004.68
2023-09-23T10:33:46.835Z,1004.69
2023-09-23T10:34:46.886Z,1004.69
2023-09-23T10:35:46.830Z,1004.69
2023-09-23T10:36:46.834Z,1004.77
2023-09-23T10:37:46.809Z,1004.71
2023-09-23T10:38:46.967Z,1004.69
2023-09-23T10:39:46.792Z,1004.67
2023-09-23T10:40:46.769Z,1004.69
2023-09-23T10:41:46.764Z,1004.74
2023-09-23T10:42:46.751Z,1004.64
2023-09-23T10:43:46.750Z,1004.63
2023-09-23T10:44:46.752Z,1004.63
2023-09-23T10:45:46.724Z,1004.68
2023-09-23T10:46:46.819Z,1004.64
2023-09-23T10:47:46.757Z,1004.66
2023-09-23T10:48:46.830Z,1004.67
2023-09-23T10:49:46.693Z,1004.70
2023-09-23T10:50:46.679Z,1004.70
2023-09-23T10:51:46.660Z,1004.73
2023-09-23T10:52:46.647Z,1004.73
2023-09-23T10:53:46.661Z,1004.74
2023-09-23T10:54:46.628Z,1004.76
2023-09-23T10:55:46.615Z,1004.80
2023-09-23T10:56:46.597Z,1004.77
2023-09-23T10:57:46.603Z,1004.77
2023-09-23T10:58:46.755Z,1004.78
2023-09-23T10:59:46.621Z,1004.76
2023-09-23T11:00:46.566Z,1004.75
2023-09-23T11:01:46.605Z,1004.80
2023-09-23T11:02:46.746Z,1004.73
2023-09-23T11:03:46.717Z,1004.71
2023-09-23T11:04:46.504Z,1004.75
2023-09-23T11:05:46.563Z,1004.73
2023-09-23T11:06:46.480Z,1004.79
2023-09-23T11:07:46.502Z,1004.75
2023-09-23T11:08:46.631Z,1004.80
2023-09-23T11:09:46.494Z,1004.78
2023-09-23T11:10:46.433Z,1004.78
2023-09-23T11:11:46.449Z,1004.81
2023-09-23T11:12:46.448Z,1004.83
2023-09-23T11:13:46.431Z,1004.90
2023-09-23T11:14:46.393Z,1004.78
2023-09-23T11:15:46.666Z,1004.92
2023-09-23T11:16:46.419Z,1004.83
2023-09-23T11:17:46.469Z,1004.81
2023-09-23T11:18:46.588Z,1004.79
2023-09-23T11:19:46.502Z,1004.80
2023-09-23T11:20:46.331Z,1004.82
2023-09-23T11:21:46.332Z,1004.79
2023-09-23T11:22:46.316Z,1004.82
2023-09-23T11:23:46.383Z,1004.78
2023-09-23T11:24:46.295Z,1004.76
2023-09-23T11:25:46.506Z,1004.74
2023-09-23T11:26:46.270Z,1004.78
2023-09-23T11:27:46.307Z,1004.79
2023-09-23T11:28:46.380Z,1004.82
2023-09-23T11:29:46.265Z,1004.90
2023-09-23T11:30:46.236Z,1004.86
2023-09-23T11:31:46.254Z,1004.86
2023-09-23T11:32:46.281Z,1004.90
2023-09-23T11:33:46.215Z,1004.86
2023-09-23T11:34:46.172Z,1004.85
2023-09-23T11:35:46.224Z,1004.83
2023-09-23T11:36:46.186Z,1004.86
2023-09-23T11:37:46.156Z,1004.90
2023-09-23T11:38:46.433Z,1004.91
2023-09-23T11:39:46.153Z,1004.91
2023-09-23T11:40:46.128Z,1004.87
2023-09-23T11:41:46.169Z,1004.85
2023-09-23T11:42:46.089Z,1004.86
2023-09-23T11:43:46.104Z,1004.93
2023-09-23T11:44:46.070Z,1004.85
2023-09-23T11:45:46.135Z,1004.80
2023-09-23T11:46:46.053Z,1004.87
2023-09-23T11:47:46.149Z,1004.84
2023-09-23T11:48:46.145Z,1004.85
2023-09-23T11:49:46.020Z,1004.87
2023-09-23T11:50:46.018Z,1004.88
2023-09-23T11:51:46.001Z,1004.88
2023-09-23T11:52:45.981Z,1004.89
2023-09-23T11:53:46.034Z,1004.92
2023-09-23T11:54:45.987Z,1004.91
2023-09-23T11:55:45.977Z,1004.98
2023-09-23T11:56:45.934Z,1004.93
2023-09-23T11:57:45.966Z,1004.93
2023-09-23T11:58:54.617Z,1004.90
2023-09-23T11:59:46.000Z,1004.95
2023-09-23T12:00:45.898Z,1004.98
2023-09-23T12:01:45.904Z,1004.98
2023-09-23T12:02:45.939Z,1004.99
2023-09-23T12:03:46.029Z,1005.00
2023-09-23T12:04:45.909Z,1004.97
2023-09-23T12:05:45.901Z,1004.98
2023-09-23T12:06:45.869Z,1004.98
2023-09-23T12:07:45.841Z,1004.98
2023-09-23T12:08:46.069Z,1004.98
2023-09-23T12:09:45.800Z,1005.02
2023-09-23T12:10:45.783Z,1005.10
2023-09-23T12:11:45.776Z,1004.99
2023-09-23T12:12:45.788Z,1004.99
2023-09-23T12:13:45.782Z,1004.98
2023-09-23T12:14:45.740Z,1004.97
2023-09-23T12:15:45.759Z,1004.99
2023-09-23T12:16:45.723Z,1004.98
2023-09-23T12:17:45.775Z,1005.05
2023-09-23T12:18:46.001Z,1005.00
2023-09-23T12:19:45.693Z,1004.94
2023-09-23T12:20:45.735Z,1004.95
2023-09-23T12:21:45.681Z,1004.97
2023-09-23T12:22:45.656Z,1004.97
2023-09-23T12:23:45.686Z,1004.98
2023-09-23T12:24:45.647Z,1004.97
2023-09-23T12:25:45.650Z,1004.99
2023-09-23T12:26:45.611Z,1005.03
2023-09-23T12:27:45.612Z,1005.03
2023-09-23T12:28:45.984Z,1005.03
2023-09-23T12:29:45.597Z,1005.03
2023-09-23T12:30:45.592Z,1005.05
2023-09-23T12:31:45.569Z,1005.05
2023-09-23T12:32:45.624Z,1005.00
2023-09-23T12:33:45.562Z,1005.04
2023-09-23T12:34:45.564Z,1005.05
2023-09-23T12:35:45.596Z,1005.03
2023-09-23T12:36:45.504Z,1005.08
2023-09-23T12:37:45.533Z,1005.09
2023-09-23T12:38:45.751Z,1005.08
2023-09-23T12:39:45.473Z,1005.10
2023-09-23T12:40:45.448Z,1005.11
2023-09-23T12:41:45.465Z,1005.17
2023-09-23T12:42:45.453Z,1005.08
2023-09-23T12:43:45.477Z,1005.09
2023-09-23T12:44:45.458Z,1005.11
2023-09-23T12:45:45.439Z,1005.09
2023-09-23T12:46:45.396Z,1005.09
2023-09-23T12:47:56.743Z,1005.09
2023-09-23T12:48:45.835Z,1005.11
2023-09-23T12:49:45.403Z,1005.07
2023-09-23T12:50:45.417Z,1005.07
2023-09-23T12:51:45.339Z,1005.08
2023-09-23T12:52:45.358Z,1005.11
2023-09-23T12:53:45.382Z,1005.14
2023-09-23T12:54:45.295Z,1005.16
2023-09-23T12:55:45.309Z,1005.19
2023-09-23T12:56:45.296Z,1005.19
2023-09-23T12:57:45.286Z,1005.19
2023-09-23T12:58:45.577Z,1005.21
2023-09-23T12:59:47.032Z,1005.19
2023-09-23T13:00:45.252Z,1005.21
2023-09-23T13:01:45.226Z,1005.21
2023-09-23T13:02:45.413Z,1005.19
2023-09-23T13:03:45.344Z,1005.23
2023-09-23T13:04:45.199Z,1005.22
2023-09-23T13:05:45.280Z,1005.22
2023-09-23T13:06:45.173Z,1005.22
2023-09-23T13:07:45.219Z,1005.21
2023-09-23T13:08:45.418Z,1005.19
2023-09-23T13:09:45.182Z,1005.19
2023-09-23T13:10:45.136Z,1005.20
2023-09-23T13:11:45.117Z,1005.20
2023-09-23T13:12:45.443Z,1005.19
2023-09-23T13:13:51.185Z,1005.20
2023-09-23T13:14:45.085Z,1005.21
2023-09-23T13:15:45.151Z,1005.23
2023-09-23T13:16:47.007Z,1005.25
2023-09-23T13:17:45.166Z,1005.27
2023-09-23T13:18:45.402Z,1005.27
2023-09-23T13:19:45.044Z,1005.27
2023-09-23T13:20:45.060Z,1005.29
2023-09-23T13:21:45.020Z,1005.29
2023-09-23T13:22:44.996Z,1005.35
2023-09-23T13:23:45.114Z,1005.34
2023-09-23T13:24:44.982Z,1005.38
2023-09-23T13:25:44.982Z,1005.37
2023-09-23T13:26:44.961Z,1005.38
2023-09-23T13:27:44.975Z,1005.41
2023-09-23T13:28:45.030Z,1005.42
2023-09-23T13:29:44.950Z,1005.42
2023-09-23T13:30:44.974Z,1005.44
2023-09-23T13:31:44.912Z,1005.46
2023-09-23T13:32:45.023Z,1005.47
2023-09-23T13:33:45.074Z,1005.50
2023-09-23T13:34:44.893Z,1005.49
2023-09-23T13:35:44.941Z,1005.51
2023-09-23T13:36:44.841Z,1005.53
2023-09-23T13:37:44.873Z,1005.52
2023-09-23T13:38:45.068Z,1005.52
2023-09-23T13:39:44.848Z,1005.55
2023-09-23T13:40:44.818Z,1005.55
2023-09-23T13:41:44.810Z,1005.54
2023-09-23T13:42:44.778Z,1005.55
2023-09-23T13:43:44.786Z,1005.55
2023-09-23T13:44:44.842Z,1005.54
2023-09-23T13:45:44.832Z,1005.55
2023-09-23T13:46:44.806Z,1005.56
2023-09-23T13:47:44.868Z,1005.57
2023-09-23T13:48:44.855Z,1005.60
2023-09-23T13:49:44.727Z,1005.60
2023-09-23T13:50:44.763Z,1005.60
2023-09-23T13:51:44.688Z,1005.62
2023-09-23T13:52:44.673Z,1005.62
2023-09-23T13:53:44.712Z,1005.64
2023-09-23T13:54:44.644Z,1005.66
2023-09-23T13:55:44.659Z,1005.67
2023-09-23T13:56:44.662Z,1005.68
2023-09-23T13:57:44.619Z,1005.70
2023-09-23T13:58:44.624Z,1005.72
2023-09-23T13:59:44.604Z,1005.72
2023-09-23T14:00:44.580Z,1005.73
2023-09-23T14:01:44.588Z,1005.73
2023-09-23T14:02:44.670Z,1005.73
2023-09-23T14:03:44.586Z,1005.77
2023-09-23T14:04:44.550Z,1005.80
2023-09-23T14:05:44.575Z,1005.78
2023-09-23T14:06:44.518Z,1005.80
2023-09-23T14:07:44.519Z,1005.76
2023-09-23T14:08:44.562Z,1005.75
2023-09-23T14:09:44.497Z,1005.75
2023-09-23T14:10:44.490Z,1005.75
2023-09-23T14:11:44.469Z,1005.75
2023-09-23T14:12:44.463Z,1005.75
2023-09-23T14:13:44.607Z,1005.77
2023-09-23T14:14:44.448Z,1005.77
2023-09-23T14:15:44.428Z,1005.79
2023-09-23T14:16:44.463Z,1005.78
2023-09-23T14:17:50.590Z,1005.79
2023-09-23T14:18:44.417Z,1005.80
2023-09-23T14:19:44.657Z,1005.82
2023-09-23T14:20:44.464Z,1005.79
2023-09-23T14:21:44.380Z,1005.80
2023-09-23T14:22:44.335Z,1005.80
2023-09-23T14:23:44.397Z,1005.81
2023-09-23T14:24:44.334Z,1005.80
2023-09-23T14:25:44.351Z,1005.85
2023-09-23T14:26:44.348Z,1005.81
2023-09-23T14:27:44.346Z,1005.85
2023-09-23T14:28:44.349Z,1005.88
2023-09-23T14:29:44.344Z,1005.93
2023-09-23T14:30:44.328Z,1005.91
2023-09-23T14:31:44.282Z,1005.90
2023-09-23T14:32:44.279Z,1005.90
2023-09-23T14:33:44.294Z,1005.91
2023-09-23T14:34:44.209Z,1005.96
2023-09-23T14:35:44.326Z,1006.00
2023-09-23T14:36:44.198Z,1005.98
2023-09-23T14:37:44.193Z,1006.00
2023-09-23T14:38:44.199Z,1005.99
2023-09-23T14:39:44.176Z,1005.98
2023-09-23T14:40:44.153Z,1006.03
2023-09-23T14:41:44.268Z,1006.03
2023-09-23T14:42:44.143Z,1006.03
2023-09-23T14:43:44.137Z,1006.07
2023-09-23T14:44:44.172Z,1006.09
2023-09-23T14:45:44.120Z,1006.08
2023-09-23T14:46:44.102Z,1006.17
2023-09-23T14:47:44.166Z,1006.11
2023-09-23T14:48:44.060Z,1006.14
2023-09-23T14:49:44.064Z,1006.14
2023-09-23T14:50:44.048Z,1006.15
2023-09-23T14:51:44.042Z,1006.20
2023-09-23T14:52:44.056Z,1006.24
2023-09-23T14:53:44.080Z,1006.19
2023-09-23T14:54:44.009Z,1006.23
2023-09-23T14:55:43.982Z,1006.21
2023-09-23T14:56:44.043Z,1006.23
2023-09-23T14:57:43.964Z,1006.23
2023-09-23T14:58:44.001Z,1006.24
2023-09-23T14:59:43.983Z,1006.25
2023-09-23T15:00:43.941Z,1006.24
2023-09-23T15:01:43.951Z,1006.25
2023-09-23T15:02:44.176Z,1006.28
2023-09-23T15:03:44.010Z,1006.28
2023-09-23T15:04:44.079Z,1006.30
2023-09-23T15:05:43.932Z,1006.29
2023-09-23T15:06:43.865Z,1006.31
2023-09-23T15:07:43.878Z,1006.28
2023-09-23T15:08:59.231Z,1006.29
2023-09-23T15:09:43.819Z,1006.34
2023-09-23T15:10:43.850Z,1006.32
2023-09-23T15:11:43.858Z,1006.34
2023-09-23T15:12:43.817Z,1006.34
2023-09-23T15:13:43.786Z,1006.38
2023-09-23T15:14:44.913Z,1006.36
2023-09-23T15:15:43.777Z,1006.36
2023-09-23T15:16:43.768Z,1006.37
2023-09-23T15:17:43.802Z,1006.38
2023-09-23T15:18:43.746Z,1006.39
2023-09-23T15:19:43.736Z,1006.45
2023-09-23T15:20:43.821Z,1006.43
2023-09-23T15:21:43.701Z,1006.45
2023-09-23T15:22:43.736Z,1006.44
2023-09-23T15:23:43.713Z,1006.48
2023-09-23T15:24:43.683Z,1006.50
2023-09-23T15:25:43.658Z,1006.51
2023-09-23T15:26:43.712Z,1006.52
2023-09-23T15:27:43.625Z,1006.56
2023-09-23T15:28:43.626Z,1006.53
2023-09-23T15:29:43.648Z,1006.55
2023-09-23T15:30:43.633Z,1006.63
2023-09-23T15:31:43.605Z,1006.60
2023-09-23T15:32:43.679Z,1006.58
2023-09-23T15:33:43.902Z,1006.58
2023-09-23T15:34:43.644Z,1006.64
2023-09-23T15:35:43.563Z,1006.61
2023-09-23T15:36:43.541Z,1006.64
2023-09-23T15:37:43.515Z,1006.67
2023-09-23T15:38:43.691Z,1006.64
2023-09-23T15:39:43.516Z,1006.64
2023-09-23T15:40:43.547Z,1006.66
2023-09-23T15:41:43.557Z,1006.65
2023-09-23T15:42:43.481Z,1006.70
2023-09-23T15:43:43.454Z,1006.68
2023-09-23T15:44:43.498Z,1006.69
2023-09-23T15:45:43.444Z,1006.68
2023-09-23T15:46:43.474Z,1006.68
2023-09-23T15:47:43.452Z,1006.71
2023-09-23T15:48:43.416Z,1006.67
2023-09-23T15:49:44.321Z,1006.67
2023-09-23T15:50:43.417Z,1006.68
2023-09-23T15:51:43.369Z,1006.68
2023-09-23T15:52:43.386Z,1006.69
2023-09-23T15:53:43.386Z,1006.69
2023-09-23T15:54:43.375Z,1006.70
2023-09-23T15:55:43.330Z,1006.71
2023-09-23T15:56:43.364Z,1006.70
2023-09-23T15:57:43.296Z,1006.69
2023-09-23T15:58:43.308Z,1006.70
2023-09-23T15:59:43.347Z,1006.71
2023-09-23T16:00:43.285Z,1006.73
2023-09-23T16:01:43.265Z,1006.75
2023-09-23T16:02:43.508Z,1006.75
2023-09-23T16:03:43.371Z,1006.76
2023-09-23T16:04:43.303Z,1006.76
2023-09-23T16:05:43.311Z,1006.76
2023-09-23T16:06:43.245Z,1006.77
2023-09-23T16:07:43.192Z,1006.78
2023-09-23T16:08:43.245Z,1006.78
2023-09-23T16:09:43.165Z,1006.78
2023-09-23T16:10:43.190Z,1006.81
2023-09-23T16:11:43.216Z,1006.80
2023-09-23T16:12:43.164Z,1006.80
2023-09-23T16:13:43.131Z,1006.78
2023-09-23T16:14:43.140Z,1006.78
2023-09-23T16:15:43.230Z,1006.81
2023-09-23T16:16:43.214Z,1006.80
2023-09-23T16:17:43.150Z,1006.82
2023-09-23T16:18:43.120Z,1006.84
2023-09-23T16:19:43.072Z,1006.87
2023-09-23T16:20:43.139Z,1006.89
2023-09-23T16:21:43.058Z,1006.90
2023-09-23T16:22:43.094Z,1006.93
2023-09-23T16:23:43.061Z,1006.95
2023-09-23T16:24:43.020Z,1007.00
2023-09-23T16:25:43.002Z,1007.01
2023-09-23T16:26:43.024Z,1007.03
2023-09-23T16:27:42.980Z,1007.05
2023-09-23T16:28:43.025Z,1007.05
2023-09-23T16:29:42.985Z,1007.08
2023-09-23T16:30:43.158Z,1007.10
2023-09-23T16:31:42.947Z,1007.10
2023-09-23T16:32:43.025Z,1007.11
2023-09-23T16:33:42.909Z,1007.12
2023-09-23T16:34:42.933Z,1007.12
2023-09-23T16:35:43.067Z,1007.15
2023-09-23T16:36:42.896Z,1007.18
2023-09-23T16:37:42.871Z,1007.18
2023-09-23T16:38:42.945Z,1007.20
2023-09-23T16:39:42.868Z,1007.20
2023-09-23T16:40:42.849Z,1007.21
2023-09-23T16:41:42.869Z,1007.21
2023-09-23T16:42:42.852Z,1007.21
2023-09-23T16:43:42.800Z,1007.21
2023-09-23T16:44:42.879Z,1007.22
2023-09-23T16:45:42.790Z,1007.22
2023-09-23T16:46:42.791Z,1007.22
2023-09-23T16:47:42.836Z,1007.23
2023-09-23T16:48:42.768Z,1007.24
2023-09-23T16:49:42.745Z,1007.25
2023-09-23T16:50:42.829Z,1007.27
2023-09-23T16:51:42.724Z,1007.28
2023-09-23T16:52:42.723Z,1007.29
2023-09-23T16:53:42.754Z,1007.31
2023-09-23T16:54:42.697Z,1007.32
2023-09-23T16:55:42.666Z,1007.32
2023-09-23T16:56:42.792Z,1007.33
2023-09-23T16:57:42.655Z,1007.34
2023-09-23T16:58:42.646Z,1007.35
2023-09-23T16:59:42.735Z,1007.37
2023-09-23T17:00:42.653Z,1007.38
2023-09-23T17:01:42.627Z,1007.41
2023-09-23T17:02:42.843Z,1007.41
2023-09-23T17:03:42.700Z,1007.40
2023-09-23T17:04:42.584Z,1007.41
2023-09-23T17:05:42.674Z,1007.40
2023-09-23T17:06:42.613Z,1007.40
2023-09-23T17:07:42.538Z,1007.42
2023-09-23T17:08:42.569Z,1007.42
2023-09-23T17:09:42.518Z,1007.44
2023-09-23T17:10:42.520Z,1007.46
2023-09-23T17:11:42.564Z,1007.47
2023-09-23T17:12:42.528Z,1007.48
2023-09-23T17:13:42.476Z,1007.51
2023-09-23T17:14:42.517Z,1007.52
2023-09-23T17:15:42.473Z,1007.55
2023-09-23T17:16:42.556Z,1007.55
2023-09-23T17:17:42.526Z,1007.56
2023-09-23T17:18:42.435Z,1007.58
2023-09-23T17:19:42.408Z,1007.58
2023-09-23T17:20:42.452Z,1007.58
2023-09-23T17:21:42.398Z,1007.58
2023-09-23T17:22:42.395Z,1007.59
2023-09-23T17:23:42.459Z,1007.61
2023-09-23T17:24:42.382Z,1007.63